createdAt,value
2023-04-09T00:01:08.428Z,3.96
2023-04-09T00:03:36.321Z,3.99
2023-04-09T00:06:04.801Z,3.94
2023-04-09T00:08:31.640Z,3.96
2023-04-09T00:10:59.731Z,3.94
2023-04-09T00:13:38.433Z,3.94
2023-04-09T00:16:07.308Z,3.90
2023-04-09T00:18:34.205Z,3.81
2023-04-09T00:21:01.271Z,3.77
2023-04-09T00:23:28.115Z,3.83
2023-04-09T00:25:55.344Z,3.90
2023-04-09T00:28:22.174Z,3.89
2023-04-09T00:30:49.232Z,3.83
2023-04-09T00:33:16.074Z,3.91
2023-04-09T00:35:43.402Z,3.90
2023-04-09T00:38:10.491Z,3.92
2023-04-09T00:40:37.583Z,3.93
2023-04-09T00:43:04.371Z,3.92
2023-04-09T00:45:31.937Z,3.93
2023-04-09T00:47:59.099Z,3.94
2023-04-09T00:50:26.494Z,3.97
2023-04-09T00:52:53.379Z,3.98
2023-04-09T00:55:21.586Z,3.97
2023-04-09T00:57:48.354Z,3.99
2023-04-09T01:00:15.761Z,3.97
2023-04-09T01:02:43.839Z,3.95
2023-04-09T01:05:12.466Z,3.94
2023-04-09T01:08:03.868Z,4.01
2023-04-09T01:10:47.086Z,4.02
2023-04-09T01:13:22.959Z,4.02
2023-04-09T01:15:58.141Z,4.03
2023-04-09T01:18:56.825Z,4.01
2023-04-09T01:21:28.094Z,3.96
2023-04-09T01:24:19.497Z,4.02
2023-04-09T01:27:08.284Z,4.03
2023-04-09T01:29:41.712Z,4.02
2023-04-09T01:32:09.322Z,4.00
2023-04-09T01:34:36.670Z,3.99
2023-04-09T01:37:04.212Z,4.00
2023-04-09T01:39:31.466Z,4.02
2023-04-09T01:41:59.081Z,4.04
2023-04-09T01:44:27.646Z,4.03
2023-04-09T01:46:56.672Z,4.00
2023-04-09T01:49:23.638Z,3.98
2023-04-09T01:51:51.056Z,3.95
2023-04-09T01:54:17.892Z,3.95
2023-04-09T01:56:47.456Z,3.96
2023-04-09T01:59:15.002Z,3.98
2023-04-09T02:01:53.918Z,3.97
2023-04-09T02:04:24.532Z,3.95
2023-04-09T02:07:20.506Z,3.98
2023-04-09T02:09:49.512Z,3.95
2023-04-09T02:12:18.312Z,3.92
2023-04-09T02:14:51.652Z,3.96
2023-04-09T02:17:19.450Z,3.96
2023-04-09T02:19:47.385Z,3.95
2023-04-09T02:22:15.697Z,3.94
2023-04-09T02:24:42.649Z,3.93
2023-04-09T02:27:09.762Z,3.87
2023-04-09T02:29:36.567Z,3.90
2023-04-09T02:32:03.679Z,3.91
2023-04-09T02:34:30.496Z,3.85
2023-04-09T02:36:57.610Z,3.82
2023-04-09T02:39:24.377Z,3.81
2023-04-09T02:41:51.433Z,3.81
2023-04-09T02:44:18.266Z,3.79
2023-04-09T02:46:47.941Z,3.84
2023-04-09T02:49:14.830Z,3.86
2023-04-09T02:51:41.895Z,3.92
2023-04-09T02:54:08.778Z,3.85
2023-04-09T02:56:35.906Z,3.85
2023-04-09T02:59:02.673Z,3.87
2023-04-09T03:01:29.796Z,3.87
2023-04-09T03:03:56.649Z,3.83
2023-04-09T03:06:23.745Z,3.85
2023-04-09T03:08:50.914Z,3.87
2023-04-09T03:11:18.289Z,3.88
2023-04-09T03:13:47.897Z,3.89
2023-04-09T03:16:14.951Z,3.88
2023-04-09T03:18:41.753Z,3.90
2023-04-09T03:21:09.388Z,3.87
2023-04-09T03:23:37.212Z,3.90
2023-04-09T03:26:06.277Z,3.90
2023-04-09T03:28:33.126Z,3.92
2023-04-09T03:31:00.366Z,3.89
2023-04-09T03:33:27.178Z,3.86
2023-04-09T03:35:54.304Z,3.88
2023-04-09T03:38:21.234Z,3.89
2023-04-09T03:40:48.324Z,3.90
2023-04-09T03:43:15.347Z,3.87
2023-04-09T03:45:42.426Z,3.92
2023-04-09T03:48:09.243Z,3.92
2023-04-09T03:50:40.911Z,3.92
2023-04-09T03:53:08.062Z,3.95
2023-04-09T03:55:35.547Z,3.90
2023-04-09T03:58:02.404Z,3.96
2023-04-09T04:00:29.533Z,3.92
2023-04-09T04:02:56.417Z,3.95
2023-04-09T04:05:26.022Z,3.94
2023-04-09T04:07:52.915Z,3.94
2023-04-09T04:10:20.331Z,3.96
2023-04-09T04:12:47.252Z,3.94
2023-04-09T04:15:14.453Z,3.92
2023-04-09T04:17:41.281Z,3.97
2023-04-09T04:20:08.966Z,3.96
2023-04-09T04:22:35.860Z,3.99
2023-04-09T04:25:04.699Z,4.01
2023-04-09T04:27:31.462Z,4.06
2023-04-09T04:30:00.086Z,4.05
2023-04-09T04:32:27.368Z,4.04
2023-04-09T04:34:54.545Z,4.05
2023-04-09T04:37:21.854Z,4.05
2023-04-09T04:39:49.009Z,4.07
2023-04-09T04:42:16.545Z,4.05
2023-04-09T04:44:44.381Z,4.07
2023-04-09T04:47:11.151Z,4.09
2023-04-09T04:49:38.205Z,4.17
2023-04-09T04:52:05.869Z,4.19
2023-04-09T04:54:34.330Z,4.21
2023-04-09T04:57:01.632Z,4.25
2023-04-09T04:59:29.062Z,4.28
2023-04-09T05:01:56.111Z,4.23
2023-04-09T05:04:23.295Z,4.27
2023-04-09T05:06:50.290Z,4.33
2023-04-09T05:09:17.366Z,4.33
2023-04-09T05:11:44.164Z,4.38
2023-04-09T05:14:13.116Z,4.40
2023-04-09T05:16:40.238Z,4.43
2023-04-09T05:19:07.555Z,4.45
2023-04-09T05:21:34.317Z,4.46
2023-04-09T05:24:01.684Z,4.49
2023-04-09T05:26:28.881Z,4.51
2023-04-09T05:28:56.351Z,4.54
2023-04-09T05:31:23.306Z,4.57
2023-04-09T05:33:50.652Z,4.63
2023-04-09T05:36:18.728Z,4.62
2023-04-09T05:38:48.864Z,4.68
2023-04-09T05:41:15.746Z,4.70
2023-04-09T05:43:43.189Z,4.73
2023-04-09T05:46:10.152Z,4.77
2023-04-09T05:48:37.380Z,4.75
2023-04-09T05:51:04.167Z,4.78
2023-04-09T05:53:32.094Z,4.81
2023-04-09T05:55:58.969Z,4.91
2023-04-09T05:58:26.373Z,5.00
2023-04-09T06:00:53.241Z,5.01
2023-04-09T06:03:20.638Z,4.97
2023-04-09T06:05:48.382Z,5.01
2023-04-09T06:08:15.743Z,5.01
2023-04-09T06:10:42.523Z,5.07
2023-04-09T06:13:10.424Z,5.13
2023-04-09T06:15:38.952Z,5.20
2023-04-09T06:18:06.533Z,5.22
2023-04-09T06:20:33.416Z,5.25
2023-04-09T06:23:00.613Z,5.19
2023-04-09T06:25:30.665Z,5.26
2023-04-09T06:27:57.753Z,5.18
2023-04-09T06:30:24.629Z,5.17
2023-04-09T06:32:54.896Z,5.16
2023-04-09T06:35:22.244Z,5.13
2023-04-09T06:37:49.344Z,5.19
2023-04-09T06:40:16.451Z,5.33
2023-04-09T06:42:43.480Z,5.40
2023-04-09T06:45:10.674Z,5.47
2023-04-09T06:47:37.765Z,5.54
2023-04-09T06:50:06.270Z,5.62
2023-04-09T06:52:33.481Z,5.66
2023-04-09T06:55:00.411Z,5.70
2023-04-09T06:57:27.635Z,5.73
2023-04-09T06:59:54.431Z,5.77
2023-04-09T07:02:22.002Z,5.77
2023-04-09T07:04:48.890Z,5.80
2023-04-09T07:07:17.129Z,5.78
2023-04-09T07:09:44.682Z,5.82
2023-04-09T07:12:11.742Z,5.89
2023-04-09T07:14:38.513Z,5.92
2023-04-09T07:17:05.584Z,5.97
2023-04-09T07:19:32.333Z,6.04
2023-04-09T07:21:59.387Z,6.06
2023-04-09T07:24:26.192Z,6.12
2023-04-09T07:26:53.901Z,6.13
2023-04-09T07:29:22.413Z,6.23
2023-04-09T07:31:49.545Z,6.25
2023-04-09T07:34:16.970Z,6.27
2023-04-09T07:36:44.126Z,6.41
2023-04-09T07:39:11.017Z,6.50
2023-04-09T07:41:38.170Z,6.60
2023-04-09T07:44:06.438Z,6.70
2023-04-09T07:46:33.667Z,6.80
2023-04-09T07:49:00.472Z,6.95
2023-04-09T07:51:27.821Z,7.00
2023-04-09T07:53:54.679Z,6.96
2023-04-09T07:56:21.778Z,7.13
2023-04-09T07:58:49.420Z,7.22
2023-04-09T08:01:17.073Z,7.25
2023-04-09T08:03:44.236Z,7.13
2023-04-09T08:06:11.393Z,7.27
2023-04-09T08:08:38.266Z,7.33
2023-04-09T08:11:05.760Z,7.41
2023-04-09T08:13:32.648Z,7.48
2023-04-09T08:16:04.775Z,7.57
2023-04-09T08:18:31.628Z,7.69
2023-04-09T08:20:58.803Z,7.79
2023-04-09T08:23:25.871Z,7.85
2023-04-09T08:25:52.921Z,7.83
2023-04-09T08:28:19.748Z,7.88
2023-04-09T08:30:47.784Z,7.70
2023-04-09T08:33:14.893Z,7.87
2023-04-09T08:35:42.551Z,7.97
2023-04-09T08:38:09.376Z,7.94
2023-04-09T08:40:37.039Z,8.04
2023-04-09T08:43:08.911Z,8.02
2023-04-09T08:45:36.597Z,8.09
2023-04-09T08:48:04.070Z,8.23
2023-04-09T08:50:32.400Z,8.31
2023-04-09T08:53:02.565Z,8.49
2023-04-09T08:55:31.225Z,8.62
2023-04-09T08:57:58.566Z,8.68
2023-04-09T09:00:25.622Z,8.61
2023-04-09T09:03:10.152Z,8.54
2023-04-09T09:05:45.385Z,8.55
2023-04-09T09:08:14.412Z,8.65
2023-04-09T09:10:46.001Z,8.65
2023-04-09T09:13:18.553Z,8.62
2023-04-09T09:15:47.825Z,8.67
2023-04-09T09:18:14.686Z,8.82
2023-04-09T09:20:41.785Z,9.02
2023-04-09T09:23:08.908Z,8.74
2023-04-09T09:25:40.566Z,8.68
2023-04-09T09:28:12.132Z,8.62
2023-04-09T09:30:40.953Z,8.69
2023-04-09T09:33:10.700Z,8.73
2023-04-09T09:35:48.998Z,8.57
2023-04-09T09:38:16.388Z,8.60
2023-04-09T09:40:44.015Z,8.57
2023-04-09T09:43:12.290Z,8.39
2023-04-09T09:45:41.910Z,8.38
2023-04-09T09:48:11.475Z,8.29
2023-04-09T09:50:41.809Z,8.19
2023-04-09T09:53:10.660Z,8.22
2023-04-09T09:55:46.758Z,8.25
2023-04-09T09:58:20.204Z,8.36
2023-04-09T10:00:51.501Z,8.37
2023-04-09T10:03:25.480Z,8.39
2023-04-09T10:05:53.915Z,8.46
2023-04-09T10:08:22.497Z,8.49
2023-04-09T10:10:51.887Z,8.43
2023-04-09T10:13:43.658Z,8.56
2023-04-09T10:16:11.407Z,8.52
2023-04-09T10:18:38.316Z,8.63
2023-04-09T10:21:15.998Z,8.70
2023-04-09T10:23:45.033Z,8.67
2023-04-09T10:26:12.103Z,8.64
2023-04-09T10:28:38.898Z,8.68
2023-04-09T10:31:07.674Z,8.93
2023-04-09T10:33:37.412Z,8.89
2023-04-09T10:36:09.815Z,9.02
2023-04-09T10:38:47.091Z,9.12
2023-04-09T10:41:17.672Z,9.37
2023-04-09T10:43:47.530Z,9.58
2023-04-09T10:46:34.109Z,9.42
2023-04-09T10:49:18.140Z,9.57
2023-04-09T10:52:12.000Z,9.64
2023-04-09T10:54:45.502Z,9.24
2023-04-09T10:57:14.746Z,9.19
2023-04-09T10:59:47.080Z,9.32
2023-04-09T11:02:39.407Z,9.35
2023-04-09T11:05:28.097Z,9.32
2023-04-09T11:08:03.640Z,9.37
2023-04-09T11:10:31.072Z,9.40
2023-04-09T11:12:58.391Z,9.23
2023-04-09T11:15:25.275Z,9.26
2023-04-09T11:17:52.406Z,9.14
2023-04-09T11:20:24.484Z,9.19
2023-04-09T11:22:53.439Z,8.97
2023-04-09T11:25:28.932Z,8.98
2023-04-09T11:27:56.208Z,9.06
2023-04-09T11:30:23.083Z,9.17
2023-04-09T11:32:50.842Z,9.16
2023-04-09T11:35:19.627Z,9.07
2023-04-09T11:37:47.536Z,9.26
2023-04-09T11:40:23.315Z,9.42
2023-04-09T11:42:52.189Z,9.53
2023-04-09T11:45:24.503Z,9.72
2023-04-09T11:47:52.174Z,9.79
2023-04-09T11:50:20.008Z,9.92
2023-04-09T11:52:47.590Z,9.99
2023-04-09T11:55:26.948Z,10.11
2023-04-09T11:57:58.182Z,10.16
2023-04-09T12:00:25.502Z,10.32
2023-04-09T12:03:01.471Z,10.36
2023-04-09T12:05:30.670Z,10.38
2023-04-09T12:08:00.974Z,10.56
2023-04-09T12:10:30.063Z,10.64
2023-04-09T12:13:06.551Z,10.92
2023-04-09T12:15:35.522Z,10.93
2023-04-09T12:18:03.491Z,10.57
2023-04-09T12:20:31.374Z,11.11
2023-04-09T12:23:00.370Z,11.41
2023-04-09T12:25:28.050Z,12.32
2023-04-09T12:27:56.525Z,12.10
2023-04-09T12:30:24.190Z,12.31
2023-04-09T12:32:52.516Z,13.54
2023-04-09T12:35:19.932Z,13.42
2023-04-09T12:37:47.335Z,13.74
2023-04-09T12:40:14.213Z,13.87
2023-04-09T12:42:45.532Z,14.28
2023-04-09T12:45:15.574Z,14.20
2023-04-09T12:47:43.374Z,13.60
2023-04-09T12:50:11.899Z,14.40
2023-04-09T12:52:39.444Z,14.46
2023-04-09T12:55:07.168Z,13.46
2023-04-09T12:57:34.738Z,13.15
2023-04-09T13:00:01.633Z,12.87
2023-04-09T13:02:28.921Z,12.61
2023-04-09T13:04:55.892Z,12.68
2023-04-09T13:07:23.549Z,13.14
2023-04-09T13:09:50.913Z,13.85
2023-04-09T13:12:18.322Z,13.32
2023-04-09T13:14:46.739Z,13.08
2023-04-09T13:17:14.406Z,15.84
2023-04-09T13:19:42.721Z,15.57
2023-04-09T13:22:10.530Z,16.07
2023-04-09T13:24:38.316Z,17.36
2023-04-09T13:27:07.065Z,16.63
2023-04-09T13:29:33.841Z,18.05
2023-04-09T13:32:05.763Z,17.92
2023-04-09T13:34:34.217Z,20.07
2023-04-09T13:37:02.374Z,18.77
2023-04-09T13:39:29.258Z,18.31
2023-04-09T13:41:56.776Z,17.26
2023-04-09T13:44:25.063Z,15.37
2023-04-09T13:46:52.510Z,14.24
2023-04-09T13:49:19.393Z,13.96
2023-04-09T13:51:46.932Z,13.64
2023-04-09T13:54:13.779Z,14.02
2023-04-09T13:56:41.500Z,17.01
2023-04-09T13:59:08.382Z,19.44
2023-04-09T14:01:35.940Z,19.84
2023-04-09T14:04:02.932Z,19.11
2023-04-09T14:06:31.243Z,20.61
2023-04-09T14:08:58.162Z,21.64
2023-04-09T14:11:25.422Z,22.49
2023-04-09T14:13:52.508Z,23.60
2023-04-09T14:16:19.804Z,23.60
2023-04-09T14:18:46.657Z,22.42
2023-04-09T14:21:13.834Z,23.48
2023-04-09T14:23:41.071Z,22.80
2023-04-09T14:26:08.233Z,23.46
2023-04-09T14:28:35.110Z,23.09
2023-04-09T14:31:02.275Z,20.94
2023-04-09T14:33:29.383Z,20.25
2023-04-09T14:35:56.556Z,21.79
2023-04-09T14:38:26.572Z,22.33
2023-04-09T14:40:53.840Z,22.05
2023-04-09T14:43:20.659Z,19.25
2023-04-09T14:45:47.737Z,18.05
2023-04-09T14:48:14.544Z,16.91
2023-04-09T14:50:43.052Z,15.76
2023-04-09T14:53:10.228Z,14.46
2023-04-09T14:55:39.523Z,14.07
2023-04-09T14:58:08.251Z,13.56
2023-04-09T15:00:36.106Z,13.17
2023-04-09T15:05:31.104Z,14.68
2023-04-09T15:07:57.948Z,14.37
2023-04-09T15:10:25.194Z,13.71
2023-04-09T15:12:52.052Z,13.06
2023-04-09T15:15:19.172Z,12.70
2023-04-09T15:17:46.019Z,12.18
2023-04-09T15:20:13.960Z,11.93
2023-04-09T15:22:40.913Z,11.78
2023-04-09T15:25:08.175Z,11.52
2023-04-09T15:27:35.033Z,11.38
2023-04-09T15:30:02.210Z,11.17
2023-04-09T15:32:30.942Z,11.04
2023-04-09T15:34:59.075Z,10.94
2023-04-09T15:37:25.969Z,10.98
2023-04-09T15:39:53.059Z,10.92
2023-04-09T15:42:22.829Z,10.86
2023-04-09T15:44:50.527Z,10.77
2023-04-09T15:47:17.856Z,10.75
2023-04-09T15:49:44.978Z,10.69
2023-04-09T15:52:11.859Z,10.60
2023-04-09T15:54:38.996Z,10.53
2023-04-09T15:57:05.877Z,10.53
2023-04-09T15:59:33.350Z,10.45
2023-04-09T16:02:00.503Z,10.36
2023-04-09T16:04:27.701Z,10.29
2023-04-09T16:06:56.281Z,10.19
2023-04-09T16:09:24.059Z,10.18
2023-04-09T16:11:51.178Z,10.16
2023-04-09T16:14:18.369Z,10.19
2023-04-09T16:16:49.693Z,10.17
2023-04-09T16:19:17.821Z,10.09
2023-04-09T16:21:45.484Z,10.07
2023-04-09T16:24:12.818Z,10.10
2023-04-09T16:26:41.149Z,10.09
2023-04-09T16:29:08.575Z,10.06
2023-04-09T16:31:37.081Z,10.05
2023-04-09T16:34:04.240Z,10.08
2023-04-09T16:36:37.106Z,10.05
2023-04-09T16:39:05.009Z,10.05
2023-04-09T16:41:32.967Z,10.04
2023-04-09T16:44:00.910Z,10.03
2023-04-09T16:46:27.815Z,10.01
2023-04-09T16:48:55.072Z,9.97
2023-04-09T16:51:21.990Z,9.95
2023-04-09T16:53:49.065Z,9.92
2023-04-09T16:56:16.788Z,9.93
2023-04-09T16:58:44.601Z,9.89
2023-04-09T17:01:11.455Z,9.89
2023-04-09T17:03:38.653Z,9.90
2023-04-09T17:06:06.255Z,9.97
2023-04-09T17:08:35.108Z,9.86
2023-04-09T17:11:02.437Z,9.86
2023-04-09T17:13:31.615Z,9.73
2023-04-09T17:15:58.816Z,9.64
2023-04-09T17:18:25.964Z,9.65
2023-04-09T17:20:53.395Z,9.63
2023-04-09T17:23:21.695Z,9.58
2023-04-09T17:25:49.216Z,9.56
2023-04-09T17:28:18.649Z,9.48
2023-04-09T17:30:45.932Z,9.48
2023-04-09T17:33:13.349Z,9.39
2023-04-09T17:35:42.536Z,9.36
2023-04-09T17:38:09.776Z,9.38
2023-04-09T17:40:36.572Z,9.35
2023-04-09T17:43:03.632Z,9.29
2023-04-09T17:45:30.409Z,9.24
2023-04-09T17:48:00.573Z,9.19
2023-04-09T17:50:27.526Z,9.15
2023-04-09T17:52:54.979Z,9.16
2023-04-09T17:55:23.400Z,9.13
2023-04-09T17:57:50.583Z,9.12
2023-04-09T18:00:17.522Z,9.09
2023-04-09T18:02:45.209Z,9.06
2023-04-09T18:05:12.562Z,9.01
2023-04-09T18:07:39.717Z,8.94
2023-04-09T18:10:06.872Z,8.88
2023-04-09T18:12:33.965Z,8.83
2023-04-09T18:15:00.762Z,8.76
2023-04-09T18:17:27.925Z,8.65
2023-04-09T18:19:54.964Z,8.52
2023-04-09T18:22:22.728Z,8.51
2023-04-09T18:24:52.003Z,8.46
2023-04-09T18:27:19.181Z,8.35
2023-04-09T18:29:46.069Z,8.31
2023-04-09T18:32:13.144Z,8.21
2023-04-09T18:34:39.995Z,8.15
2023-04-09T18:37:07.693Z,8.10
2023-04-09T18:39:34.749Z,8.01
2023-04-09T18:42:02.620Z,7.92
2023-04-09T18:44:29.482Z,7.84
2023-04-09T18:46:56.708Z,7.79
2023-04-09T18:49:23.655Z,7.73
2023-04-09T18:51:50.739Z,7.70
2023-04-09T18:54:17.537Z,7.64
2023-04-09T18:56:46.556Z,7.62
2023-04-09T18:59:13.454Z,7.55
2023-04-09T19:01:40.629Z,7.56
2023-04-09T19:04:07.542Z,7.48
2023-04-09T19:06:36.142Z,7.51
2023-04-09T19:09:04.551Z,7.46
2023-04-09T19:11:31.629Z,7.50
2023-04-09T19:13:58.437Z,7.43
2023-04-09T19:16:25.557Z,7.38
2023-04-09T19:18:52.716Z,7.37
2023-04-09T19:21:20.091Z,7.34
2023-04-09T19:23:47.063Z,7.32
2023-04-09T19:26:14.399Z,7.29
2023-04-09T19:28:41.212Z,7.27
2023-04-09T19:31:08.393Z,7.26
2023-04-09T19:33:35.411Z,7.25
2023-04-09T19:36:02.612Z,7.25
2023-04-09T19:38:29.466Z,7.19
2023-04-09T19:40:56.534Z,7.11
2023-04-09T19:43:23.413Z,7.10
2023-04-09T19:45:50.485Z,7.06
2023-04-09T19:48:17.322Z,7.01
2023-04-09T19:50:45.305Z,7.00
2023-04-09T19:53:12.217Z,6.99
2023-04-09T19:55:39.356Z,6.97
2023-04-09T19:58:06.938Z,6.86
2023-04-09T20:00:34.645Z,6.83
2023-04-09T20:03:02.936Z,6.82
2023-04-09T20:05:30.343Z,6.75
2023-04-09T20:07:57.179Z,6.70
2023-04-09T20:10:24.266Z,6.67
2023-04-09T20:12:51.935Z,6.64
2023-04-09T20:15:22.445Z,6.62
2023-04-09T20:17:49.924Z,6.56
2023-04-09T20:20:19.834Z,6.53
2023-04-09T20:22:55.602Z,6.38
2023-04-09T20:25:24.329Z,6.29
2023-04-09T20:27:54.599Z,6.27
2023-04-09T20:30:22.559Z,6.26
2023-04-09T20:32:49.538Z,6.21
2023-04-09T20:35:16.724Z,6.20
2023-04-09T20:37:44.149Z,6.17
2023-04-09T20:40:12.266Z,6.12
2023-04-09T20:42:41.339Z,6.13
2023-04-09T20:45:09.253Z,6.07
2023-04-09T20:47:36.419Z,6.07
2023-04-09T20:50:03.917Z,6.00
2023-04-09T20:52:30.808Z,5.98
2023-04-09T20:54:57.893Z,5.91
2023-04-09T20:57:25.194Z,5.83
2023-04-09T20:59:53.812Z,5.85
2023-04-09T21:02:21.267Z,5.73
2023-04-09T21:04:48.446Z,5.72
2023-04-09T21:07:15.630Z,5.63
2023-04-09T21:09:42.714Z,5.54
2023-04-09T21:12:09.741Z,5.49
2023-04-09T21:14:36.790Z,5.46
2023-04-09T21:17:03.704Z,5.44
2023-04-09T21:19:30.795Z,5.42
2023-04-09T21:21:57.732Z,5.41
2023-04-09T21:24:24.886Z,5.37
2023-04-09T21:26:52.612Z,5.37
2023-04-09T21:29:23.105Z,5.34
2023-04-09T21:31:50.088Z,5.30
2023-04-09T21:34:17.167Z,5.24
2023-04-09T21:36:45.366Z,5.23
2023-04-09T21:39:12.981Z,5.25
2023-04-09T21:41:39.927Z,5.26
2023-04-09T21:44:10.091Z,5.21
2023-04-09T21:46:37.273Z,5.18
2023-04-09T21:49:04.697Z,5.13
2023-04-09T21:51:32.138Z,5.12
2023-04-09T21:54:07.839Z,5.13
2023-04-09T21:56:35.667Z,5.07
2023-04-09T21:59:03.546Z,5.02
2023-04-09T22:01:31.461Z,4.97
2023-04-09T22:03:59.756Z,4.94
2023-04-09T22:06:27.422Z,4.89
2023-04-09T22:08:57.078Z,4.83
2023-04-09T22:11:28.431Z,4.75
2023-04-09T22:13:57.341Z,4.71
2023-04-09T22:16:25.062Z,4.67
2023-04-09T22:18:53.907Z,4.63
2023-04-09T22:21:21.614Z,4.65
2023-04-09T22:23:48.739Z,4.66
2023-04-09T22:26:15.734Z,4.63
2023-04-09T22:28:42.798Z,4.58
2023-04-09T22:31:09.616Z,4.53
2023-04-09T22:33:36.736Z,4.53
2023-04-09T22:36:03.690Z,4.52
2023-04-09T22:38:31.255Z,4.55
2023-04-09T22:40:58.060Z,4.54
2023-04-09T22:43:28.335Z,4.45
2023-04-09T22:45:55.996Z,4.44
2023-04-09T22:48:23.285Z,4.40
2023-04-09T22:50:50.411Z,4.40
2023-04-09T22:53:20.900Z,4.40
2023-04-09T22:55:51.095Z,4.42
2023-04-09T22:58:18.886Z,4.42
2023-04-09T23:00:50.566Z,4.42
2023-04-09T23:03:17.802Z,4.42
2023-04-09T23:05:45.339Z,4.41
2023-04-09T23:08:12.498Z,4.38
2023-04-09T23:10:39.294Z,4.31
2023-04-09T23:13:06.518Z,4.32
2023-04-09T23:15:34.341Z,4.24
2023-04-09T23:18:01.667Z,4.16
2023-04-09T23:20:29.316Z,4.15
2023-04-09T23:22:56.373Z,4.12
2023-04-09T23:25:23.154Z,4.06
2023-04-09T23:27:50.355Z,3.96
2023-04-09T23:30:18.123Z,3.95
2023-04-09T23:32:45.777Z,3.99
2023-04-09T23:35:12.860Z,4.01
2023-04-09T23:37:41.386Z,3.99
2023-04-09T23:40:09.457Z,4.00
2023-04-09T23:42:36.556Z,3.98
2023-04-09T23:45:05.391Z,4.00
2023-04-09T23:47:34.592Z,4.00
2023-04-09T23:50:06.034Z,3.95
2023-04-09T23:52:38.047Z,3.95
2023-04-09T23:55:08.662Z,3.88
2023-04-09T23:57:35.739Z,3.87
